sensor_id;sensor_type;location;lat;lon;timestamp;temperature;humidity
2523;DHT22;1272;53.332;9.860;2023-03-01T00:01:47;-1.60;99.90
2523;DHT22;1272;53.332;9.860;2023-03-01T00:04:13;-1.70;99.90
2523;DHT22;1272;53.332;9.860;2023-03-01T00:06:38;-1.70;1.00
2523;DHT22;1272;53.332;9.860;2023-03-01T00:09:04;-1.70;1.00
2523;DHT22;1272;53.332;9.860;2023-03-01T00:11:31;-1.70;1.00
2523;DHT22;1272;53.332;9.860;2023-03-01T00:13:59;-1.70;99.90
2523;DHT22;1272;53.332;9.860;2023-03-01T00:19:48;-1.70;1.00
2523;DHT22;1272;53.332;9.860;2023-03-01T00:22:14;-1.80;99.90
2523;DHT22;1272;53.332;9.860;2023-03-01T00:24:39;-1.80;99.90
2523;DHT22;1272;53.332;9.860;2023-03-01T00:27:05;-1.80;99.90
2523;DHT22;1272;53.332;9.860;2023-03-01T00:29:31;-1.80;99.90
2523;DHT22;1272;53.332;9.860;2023-03-01T00:31:57;-1.90;99.90
2523;DHT22;1272;53.332;9.860;2023-03-01T00:34:22;-1.90;1.00
2523;DHT22;1272;53.332;9.860;2023-03-01T00:36:48;-2.00;1.00
2523;DHT22;1272;53.332;9.860;2023-03-01T00:39:15;-2.10;99.90
2523;DHT22;1272;53.332;9.860;2023-03-01T00:41:41;-2.00;99.90
2523;DHT22;1272;53.332;9.860;2023-03-01T00:44:07;-2.10;99.90
2523;DHT22;1272;53.332;9.860;2023-03-01T00:46:33;-2.10;99.90
2523;DHT22;1272;53.332;9.860;2023-03-01T00:48:59;-2.10;99.90
2523;DHT22;1272;53.332;9.860;2023-03-01T00:51:28;-2.00;99.90
2523;DHT22;1272;53.332;9.860;2023-03-01T00:53:55;-2.10;99.90
2523;DHT22;1272;53.332;9.860;2023-03-01T00:56:22;-2.10;99.90
2523;DHT22;1272;53.332;9.860;2023-03-01T00:58:48;-2.10;99.90
2523;DHT22;1272;53.332;9.860;2023-03-01T01:01:22;-2.10;99.90
2523;DHT22;1272;53.332;9.860;2023-03-01T01:03:51;-2.10;1.00
2523;DHT22;1272;53.332;9.860;2023-03-01T01:08:52;-2.20;99.90
2523;DHT22;1272;53.332;9.860;2023-03-01T01:11:18;-2.20;1.00
2523;DHT22;1272;53.332;9.860;2023-03-01T01:13:46;-2.20;1.00
2523;DHT22;1272;53.332;9.860;2023-03-01T01:16:13;-2.20;1.00
2523;DHT22;1272;53.332;9.860;2023-03-01T01:18:39;-2.20;1.00
2523;DHT22;1272;53.332;9.860;2023-03-01T01:21:10;-2.20;1.00
2523;DHT22;1272;53.332;9.860;2023-03-01T01:23:38;-2.20;1.00
2523;DHT22;1272;53.332;9.860;2023-03-01T01:26:09;-2.20;1.00
2523;DHT22;1272;53.332;9.860;2023-03-01T01:28:35;-2.30;1.00
2523;DHT22;1272;53.332;9.860;2023-03-01T01:31:01;-2.30;1.00
2523;DHT22;1272;53.332;9.860;2023-03-01T01:33:27;-2.30;1.00
2523;DHT22;1272;53.332;9.860;2023-03-01T01:35:53;-2.30;1.00
2523;DHT22;1272;53.332;9.860;2023-03-01T01:38:19;-2.30;1.00
2523;DHT22;1272;53.332;9.860;2023-03-01T01:40:47;-2.30;1.00
2523;DHT22;1272;53.332;9.860;2023-03-01T01:43:23;-2.40;1.00
2523;DHT22;1272;53.332;9.860;2023-03-01T01:45:49;-2.40;1.00
2523;DHT22;1272;53.332;9.860;2023-03-01T01:48:20;-2.40;6.10
2523;DHT22;1272;53.332;9.860;2023-03-01T01:50:58;-2.40;1.00
2523;DHT22;1272;53.332;9.860;2023-03-01T01:53:26;-2.40;1.00
2523;DHT22;1272;53.332;9.860;2023-03-01T01:55:55;-2.40;1.00
2523;DHT22;1272;53.332;9.860;2023-03-01T01:58:24;-2.50;1.00
2523;DHT22;1272;53.332;9.860;2023-03-01T02:00:52;-2.50;99.90
2523;DHT22;1272;53.332;9.860;2023-03-01T02:03:27;-2.50;99.90
2523;DHT22;1272;53.332;9.860;2023-03-01T02:06:01;-2.60;99.90
2523;DHT22;1272;53.332;9.860;2023-03-01T02:08:31;-2.60;99.90
2523;DHT22;1272;53.332;9.860;2023-03-01T02:10:59;-2.60;99.90
2523;DHT22;1272;53.332;9.860;2023-03-01T02:13:26;-2.60;99.90
2523;DHT22;1272;53.332;9.860;2023-03-01T02:15:51;-2.60;99.90
2523;DHT22;1272;53.332;9.860;2023-03-01T02:18:21;-2.60;99.90
2523;DHT22;1272;53.332;9.860;2023-03-01T02:23:31;-2.60;1.00
2523;DHT22;1272;53.332;9.860;2023-03-01T02:26:01;-2.70;1.00
2523;DHT22;1272;53.332;9.860;2023-03-01T02:28:32;-2.70;1.00
2523;DHT22;1272;53.332;9.860;2023-03-01T02:30:58;-2.60;1.00
2523;DHT22;1272;53.332;9.860;2023-03-01T02:33:43;-2.60;99.90
2523;DHT22;1272;53.332;9.860;2023-03-01T02:36:17;-2.60;99.90
2523;DHT22;1272;53.332;9.860;2023-03-01T02:38:44;-2.60;99.90
2523;DHT22;1272;53.332;9.860;2023-03-01T02:41:12;-2.70;99.90
2523;DHT22;1272;53.332;9.860;2023-03-01T02:43:38;-2.70;1.00
2523;DHT22;1272;53.332;9.860;2023-03-01T02:46:17;-2.70;99.90
2523;DHT22;1272;53.332;9.860;2023-03-01T02:48:49;-2.80;99.90
2523;DHT22;1272;53.332;9.860;2023-03-01T02:56:25;-3.00;96.60
2523;DHT22;1272;53.332;9.860;2023-03-01T02:58:51;-3.00;86.70
2523;DHT22;1272;53.332;9.860;2023-03-01T03:01:19;-3.00;99.90
2523;DHT22;1272;53.332;9.860;2023-03-01T03:03:45;-3.00;99.90
2523;DHT22;1272;53.332;9.860;2023-03-01T03:06:10;-2.90;95.30
2523;DHT22;1272;53.332;9.860;2023-03-01T03:08:36;-3.00;35.90
2523;DHT22;1272;53.332;9.860;2023-03-01T03:11:02;-3.00;99.90
2523;DHT22;1272;53.332;9.860;2023-03-01T03:13:28;-3.00;99.90
2523;DHT22;1272;53.332;9.860;2023-03-01T03:15:56;-2.90;99.90
2523;DHT22;1272;53.332;9.860;2023-03-01T03:18:23;-2.90;99.90
2523;DHT22;1272;53.332;9.860;2023-03-01T03:20:51;-2.90;99.90
2523;DHT22;1272;53.332;9.860;2023-03-01T03:23:19;-2.90;99.90
2523;DHT22;1272;53.332;9.860;2023-03-01T03:25:47;-2.90;99.90
2523;DHT22;1272;53.332;9.860;2023-03-01T03:28:13;-2.80;99.90
2523;DHT22;1272;53.332;9.860;2023-03-01T03:30:40;-2.80;99.90
2523;DHT22;1272;53.332;9.860;2023-03-01T03:33:07;-2.80;99.90
2523;DHT22;1272;53.332;9.860;2023-03-01T03:35:39;-2.90;99.90
2523;DHT22;1272;53.332;9.860;2023-03-01T03:38:08;-2.90;99.90
2523;DHT22;1272;53.332;9.860;2023-03-01T03:40:42;-2.90;99.90
2523;DHT22;1272;53.332;9.860;2023-03-01T03:43:19;-2.90;99.90
2523;DHT22;1272;53.332;9.860;2023-03-01T03:45:46;-2.90;99.90
2523;DHT22;1272;53.332;9.860;2023-03-01T03:48:12;-2.90;99.90
2523;DHT22;1272;53.332;9.860;2023-03-01T03:50:39;-2.90;99.90
2523;DHT22;1272;53.332;9.860;2023-03-01T03:53:07;-2.90;99.90
2523;DHT22;1272;53.332;9.860;2023-03-01T03:55:33;-2.90;99.90
2523;DHT22;1272;53.332;9.860;2023-03-01T03:58:01;-2.90;99.90
2523;DHT22;1272;53.332;9.860;2023-03-01T04:00:40;-2.90;99.90
2523;DHT22;1272;53.332;9.860;2023-03-01T04:03:08;-2.90;99.90
2523;DHT22;1272;53.332;9.860;2023-03-01T04:05:35;-2.90;99.90
2523;DHT22;1272;53.332;9.860;2023-03-01T04:08:01;-2.90;99.90
2523;DHT22;1272;53.332;9.860;2023-03-01T04:10:31;-2.80;99.90
2523;DHT22;1272;53.332;9.860;2023-03-01T04:12:57;-2.80;99.90
2523;DHT22;1272;53.332;9.860;2023-03-01T04:15:24;-2.80;99.90
2523;DHT22;1272;53.332;9.860;2023-03-01T04:17:52;-2.80;99.90
2523;DHT22;1272;53.332;9.860;2023-03-01T04:20:20;-2.80;99.90
2523;DHT22;1272;53.332;9.860;2023-03-01T04:22:51;-2.80;99.90
2523;DHT22;1272;53.332;9.860;2023-03-01T04:25:17;-2.80;99.90
2523;DHT22;1272;53.332;9.860;2023-03-01T04:27:43;-2.80;99.90
2523;DHT22;1272;53.332;9.860;2023-03-01T04:30:09;-2.90;99.90
2523;DHT22;1272;53.332;9.860;2023-03-01T04:32:35;-2.80;1.00
2523;DHT22;1272;53.332;9.860;2023-03-01T04:35:01;-2.80;99.90
2523;DHT22;1272;53.332;9.860;2023-03-01T04:37:27;-2.80;99.90
2523;DHT22;1272;53.332;9.860;2023-03-01T04:39:52;-2.80;1.00
2523;DHT22;1272;53.332;9.860;2023-03-01T04:42:18;-2.80;1.00
2523;DHT22;1272;53.332;9.860;2023-03-01T04:44:44;-2.80;1.00
2523;DHT22;1272;53.332;9.860;2023-03-01T04:47:10;-2.70;1.00
2523;DHT22;1272;53.332;9.860;2023-03-01T04:49:36;-2.70;1.00
2523;DHT22;1272;53.332;9.860;2023-03-01T04:52:03;-2.60;1.00
2523;DHT22;1272;53.332;9.860;2023-03-01T04:54:30;-2.60;1.00
2523;DHT22;1272;53.332;9.860;2023-03-01T04:56:56;-2.60;1.00
2523;DHT22;1272;53.332;9.860;2023-03-01T04:59:22;-2.50;1.00
2523;DHT22;1272;53.332;9.860;2023-03-01T05:01:51;-2.50;1.00
2523;DHT22;1272;53.332;9.860;2023-03-01T05:04:17;-2.40;1.00
2523;DHT22;1272;53.332;9.860;2023-03-01T05:06:43;-2.40;1.00
2523;DHT22;1272;53.332;9.860;2023-03-01T05:09:09;-2.40;1.00
2523;DHT22;1272;53.332;9.860;2023-03-01T05:11:34;-2.30;1.00
2523;DHT22;1272;53.332;9.860;2023-03-01T05:14:06;-2.30;1.00
2523;DHT22;1272;53.332;9.860;2023-03-01T05:16:32;-2.30;1.00
2523;DHT22;1272;53.332;9.860;2023-03-01T05:18:58;-2.30;1.00
2523;DHT22;1272;53.332;9.860;2023-03-01T05:21:25;-2.20;1.00
2523;DHT22;1272;53.332;9.860;2023-03-01T05:23:51;-2.20;1.00
2523;DHT22;1272;53.332;9.860;2023-03-01T05:26:19;-2.10;1.00
2523;DHT22;1272;53.332;9.860;2023-03-01T05:28:44;-2.10;1.00
2523;DHT22;1272;53.332;9.860;2023-03-01T05:31:10;-2.00;2.60
2523;DHT22;1272;53.332;9.860;2023-03-01T05:33:40;-2.00;11.50
2523;DHT22;1272;53.332;9.860;2023-03-01T05:36:09;-1.90;17.40
2523;DHT22;1272;53.332;9.860;2023-03-01T05:38:35;-1.90;18.80
2523;DHT22;1272;53.332;9.860;2023-03-01T05:41:01;-1.90;28.30
2523;DHT22;1272;53.332;9.860;2023-03-01T05:43:30;-1.90;35.60
2523;DHT22;1272;53.332;9.860;2023-03-01T05:45:57;-1.90;46.80
2523;DHT22;1272;53.332;9.860;2023-03-01T05:48:23;-1.80;81.40
2523;DHT22;1272;53.332;9.860;2023-03-01T05:50:49;-1.80;78.20
2523;DHT22;1272;53.332;9.860;2023-03-01T05:53:17;-1.70;90.30
2523;DHT22;1272;53.332;9.860;2023-03-01T05:55:45;-1.70;94.90
2523;DHT22;1272;53.332;9.860;2023-03-01T05:58:18;-1.70;99.90
2523;DHT22;1272;53.332;9.860;2023-03-01T06:00:45;-1.70;99.90
2523;DHT22;1272;53.332;9.860;2023-03-01T06:03:13;-1.60;99.90
2523;DHT22;1272;53.332;9.860;2023-03-01T06:05:40;-1.60;99.90
2523;DHT22;1272;53.332;9.860;2023-03-01T06:08:05;-1.50;99.90
2523;DHT22;1272;53.332;9.860;2023-03-01T06:10:31;-1.50;99.90
2523;DHT22;1272;53.332;9.860;2023-03-01T06:12:57;-1.50;99.90
2523;DHT22;1272;53.332;9.860;2023-03-01T06:15:23;-1.40;99.90
2523;DHT22;1272;53.332;9.860;2023-03-01T06:17:49;-1.40;99.90
2523;DHT22;1272;53.332;9.860;2023-03-01T06:20:18;-1.30;99.90
2523;DHT22;1272;53.332;9.860;2023-03-01T06:22:44;-1.30;99.90
2523;DHT22;1272;53.332;9.860;2023-03-01T06:25:11;-1.30;99.90
2523;DHT22;1272;53.332;9.860;2023-03-01T06:27:38;-1.30;99.90
2523;DHT22;1272;53.332;9.860;2023-03-01T06:30:04;-1.30;99.90
2523;DHT22;1272;53.332;9.860;2023-03-01T06:32:30;-1.30;99.90
2523;DHT22;1272;53.332;9.860;2023-03-01T06:34:57;-1.30;99.90
2523;DHT22;1272;53.332;9.860;2023-03-01T06:37:24;-1.30;99.90
2523;DHT22;1272;53.332;9.860;2023-03-01T06:39:50;-1.30;99.90
2523;DHT22;1272;53.332;9.860;2023-03-01T06:42:16;-1.20;99.90
2523;DHT22;1272;53.332;9.860;2023-03-01T06:44:42;-1.10;99.90
2523;DHT22;1272;53.332;9.860;2023-03-01T06:47:07;-1.10;99.90
2523;DHT22;1272;53.332;9.860;2023-03-01T06:49:33;-1.00;99.90
2523;DHT22;1272;53.332;9.860;2023-03-01T06:51:59;-1.00;99.90
2523;DHT22;1272;53.332;9.860;2023-03-01T06:54:25;-0.90;99.90
2523;DHT22;1272;53.332;9.860;2023-03-01T06:56:51;-0.90;99.90
2523;DHT22;1272;53.332;9.860;2023-03-01T06:59:17;-0.90;99.90
2523;DHT22;1272;53.332;9.860;2023-03-01T07:01:43;-0.90;99.90
2523;DHT22;1272;53.332;9.860;2023-03-01T07:04:09;-0.80;99.90
2523;DHT22;1272;53.332;9.860;2023-03-01T07:06:35;-0.80;99.90
2523;DHT22;1272;53.332;9.860;2023-03-01T07:09:01;-0.70;99.90
2523;DHT22;1272;53.332;9.860;2023-03-01T07:11:26;-0.60;99.90
2523;DHT22;1272;53.332;9.860;2023-03-01T07:13:52;-0.60;99.90
2523;DHT22;1272;53.332;9.860;2023-03-01T07:16:18;-0.60;99.90
2523;DHT22;1272;53.332;9.860;2023-03-01T07:18:45;-0.60;99.90
2523;DHT22;1272;53.332;9.860;2023-03-01T07:21:13;-0.50;99.90
2523;DHT22;1272;53.332;9.860;2023-03-01T07:23:39;-0.50;99.90
2523;DHT22;1272;53.332;9.860;2023-03-01T07:26:05;-0.50;99.90
2523;DHT22;1272;53.332;9.860;2023-03-01T07:28:31;-0.40;99.90
2523;DHT22;1272;53.332;9.860;2023-03-01T07:31:04;-0.40;99.90
2523;DHT22;1272;53.332;9.860;2023-03-01T07:33:30;-0.30;99.90
2523;DHT22;1272;53.332;9.860;2023-03-01T07:35:57;-0.30;99.90
2523;DHT22;1272;53.332;9.860;2023-03-01T07:38:23;-0.30;99.90
2523;DHT22;1272;53.332;9.860;2023-03-01T07:40:49;-0.20;99.90
2523;DHT22;1272;53.332;9.860;2023-03-01T07:43:15;-0.20;99.90
2523;DHT22;1272;53.332;9.860;2023-03-01T07:45:40;-0.20;99.90
2523;DHT22;1272;53.332;9.860;2023-03-01T07:48:06;-0.10;99.90
2523;DHT22;1272;53.332;9.860;2023-03-01T07:50:32;-0.10;99.90
2523;DHT22;1272;53.332;9.860;2023-03-01T07:52:57;0.00;99.90
2523;DHT22;1272;53.332;9.860;2023-03-01T07:55:23;0.00;99.90
2523;DHT22;1272;53.332;9.860;2023-03-01T07:57:49;0.00;99.90
2523;DHT22;1272;53.332;9.860;2023-03-01T08:00:15;0.10;99.90
2523;DHT22;1272;53.332;9.860;2023-03-01T08:02:40;0.20;99.90
2523;DHT22;1272;53.332;9.860;2023-03-01T08:05:08;0.20;99.90
2523;DHT22;1272;53.332;9.860;2023-03-01T08:07:35;0.30;99.90
2523;DHT22;1272;53.332;9.860;2023-03-01T08:10:00;0.30;99.90
2523;DHT22;1272;53.332;9.860;2023-03-01T08:12:26;0.40;99.90
2523;DHT22;1272;53.332;9.860;2023-03-01T08:14:53;0.50;99.90
2523;DHT22;1272;53.332;9.860;2023-03-01T08:17:19;0.50;99.90
2523;DHT22;1272;53.332;9.860;2023-03-01T08:19:45;0.60;99.90
2523;DHT22;1272;53.332;9.860;2023-03-01T08:22:11;0.60;99.90
2523;DHT22;1272;53.332;9.860;2023-03-01T08:24:37;0.70;99.90
2523;DHT22;1272;53.332;9.860;2023-03-01T08:27:02;0.80;99.90
2523;DHT22;1272;53.332;9.860;2023-03-01T08:29:30;0.90;99.90
2523;DHT22;1272;53.332;9.860;2023-03-01T08:31:56;1.00;99.90
2523;DHT22;1272;53.332;9.860;2023-03-01T08:34:22;1.10;99.90
2523;DHT22;1272;53.332;9.860;2023-03-01T08:36:47;1.10;99.90
2523;DHT22;1272;53.332;9.860;2023-03-01T08:39:15;1.20;18.90
2523;DHT22;1272;53.332;9.860;2023-03-01T08:41:42;1.30;1.00
2523;DHT22;1272;53.332;9.860;2023-03-01T08:44:09;1.40;1.00
2523;DHT22;1272;53.332;9.860;2023-03-01T08:46:37;1.50;99.90
2523;DHT22;1272;53.332;9.860;2023-03-01T08:49:19;1.60;99.90
2523;DHT22;1272;53.332;9.860;2023-03-01T08:51:46;1.70;1.00
2523;DHT22;1272;53.332;9.860;2023-03-01T08:54:18;1.80;99.90
2523;DHT22;1272;53.332;9.860;2023-03-01T08:56:45;1.90;1.00
2523;DHT22;1272;53.332;9.860;2023-03-01T08:59:12;2.00;1.00
2523;DHT22;1272;53.332;9.860;2023-03-01T09:01:38;2.10;1.00
2523;DHT22;1272;53.332;9.860;2023-03-01T09:04:04;2.20;99.90
2523;DHT22;1272;53.332;9.860;2023-03-01T09:06:33;2.20;1.00
2523;DHT22;1272;53.332;9.860;2023-03-01T09:08:59;2.30;1.00
2523;DHT22;1272;53.332;9.860;2023-03-01T09:11:25;2.30;99.90
2523;DHT22;1272;53.332;9.860;2023-03-01T09:13:51;2.40;99.90
2523;DHT22;1272;53.332;9.860;2023-03-01T09:16:19;2.50;1.00
2523;DHT22;1272;53.332;9.860;2023-03-01T09:18:49;2.60;1.00
2523;DHT22;1272;53.332;9.860;2023-03-01T09:21:16;2.70;1.00
2523;DHT22;1272;53.332;9.860;2023-03-01T09:23:44;2.80;99.90
2523;DHT22;1272;53.332;9.860;2023-03-01T09:26:17;2.90;99.90
2523;DHT22;1272;53.332;9.860;2023-03-01T09:28:45;2.90;99.90
2523;DHT22;1272;53.332;9.860;2023-03-01T09:31:11;3.00;99.90
2523;DHT22;1272;53.332;9.860;2023-03-01T09:33:41;3.10;99.90
2523;DHT22;1272;53.332;9.860;2023-03-01T09:36:11;3.20;99.90
2523;DHT22;1272;53.332;9.860;2023-03-01T09:38:37;3.30;1.00
2523;DHT22;1272;53.332;9.860;2023-03-01T09:44:01;3.50;1.00
2523;DHT22;1272;53.332;9.860;2023-03-01T09:46:34;3.60;1.00
2523;DHT22;1272;53.332;9.860;2023-03-01T09:49:10;3.70;1.00
2523;DHT22;1272;53.332;9.860;2023-03-01T09:51:37;3.80;1.00
2523;DHT22;1272;53.332;9.860;2023-03-01T09:54:04;3.90;1.00
2523;DHT22;1272;53.332;9.860;2023-03-01T09:56:37;4.00;1.00
2523;DHT22;1272;53.332;9.860;2023-03-01T10:04:28;4.30;1.00
2523;DHT22;1272;53.332;9.860;2023-03-01T10:09:40;4.40;1.00
2523;DHT22;1272;53.332;9.860;2023-03-01T10:12:16;4.40;1.00
2523;DHT22;1272;53.332;9.860;2023-03-01T10:15:11;4.50;1.00
2523;DHT22;1272;53.332;9.860;2023-03-01T10:17:51;4.70;99.90
2523;DHT22;1272;53.332;9.860;2023-03-01T10:20:25;4.70;99.90
2523;DHT22;1272;53.332;9.860;2023-03-01T10:22:52;4.90;99.90
2523;DHT22;1272;53.332;9.860;2023-03-01T10:31:13;5.60;99.90
2523;DHT22;1272;53.332;9.860;2023-03-01T10:33:41;5.90;99.90
2523;DHT22;1272;53.332;9.860;2023-03-01T10:36:07;6.10;99.90
2523;DHT22;1272;53.332;9.860;2023-03-01T10:38:49;6.20;99.90
2523;DHT22;1272;53.332;9.860;2023-03-01T10:41:15;6.40;99.90
2523;DHT22;1272;53.332;9.860;2023-03-01T10:43:55;6.50;60.40
2523;DHT22;1272;53.332;9.860;2023-03-01T10:51:45;6.80;99.90
2523;DHT22;1272;53.332;9.860;2023-03-01T10:54:28;6.90;99.90
2523;DHT22;1272;53.332;9.860;2023-03-01T10:56:59;6.90;99.90
2523;DHT22;1272;53.332;9.860;2023-03-01T10:59:36;7.20;1.00
2523;DHT22;1272;53.332;9.860;2023-03-01T11:02:23;7.50;1.00
2523;DHT22;1272;53.332;9.860;2023-03-01T11:08:06;8.10;99.90
2523;DHT22;1272;53.332;9.860;2023-03-01T11:10:36;8.40;19.80
2523;DHT22;1272;53.332;9.860;2023-03-01T11:13:18;8.50;86.10
2523;DHT22;1272;53.332;9.860;2023-03-01T11:16:03;8.70;1.00
2523;DHT22;1272;53.332;9.860;2023-03-01T11:18:30;8.70;59.00
2523;DHT22;1272;53.332;9.860;2023-03-01T11:20:58;8.80;1.00
2523;DHT22;1272;53.332;9.860;2023-03-01T11:23:25;8.80;1.00
2523;DHT22;1272;53.332;9.860;2023-03-01T11:26:01;8.90;1.00
2523;DHT22;1272;53.332;9.860;2023-03-01T11:28:29;9.00;1.00
2523;DHT22;1272;53.332;9.860;2023-03-01T11:31:00;9.10;1.00
2523;DHT22;1272;53.332;9.860;2023-03-01T11:38:36;9.00;1.00
2523;DHT22;1272;53.332;9.860;2023-03-01T11:41:29;9.00;1.00
2523;DHT22;1272;53.332;9.860;2023-03-01T11:44:05;8.90;1.00
2523;DHT22;1272;53.332;9.860;2023-03-01T12:03:47;8.60;1.00
2523;DHT22;1272;53.332;9.860;2023-03-01T12:07:09;8.60;1.00
2523;DHT22;1272;53.332;9.860;2023-03-01T12:14:59;8.70;1.00
2523;DHT22;1272;53.332;9.860;2023-03-01T12:17:58;8.90;77.30
2523;DHT22;1272;53.332;9.860;2023-03-01T12:20:41;9.20;1.00
2523;DHT22;1272;53.332;9.860;2023-03-01T12:26:23;9.50;1.00
2523;DHT22;1272;53.332;9.860;2023-03-01T12:32:10;9.90;1.00
2523;DHT22;1272;53.332;9.860;2023-03-01T12:51:28;10.50;1.00
2523;DHT22;1272;53.332;9.860;2023-03-01T12:53:55;10.70;99.90
2523;DHT22;1272;53.332;9.860;2023-03-01T12:56:29;10.90;99.90
2523;DHT22;1272;53.332;9.860;2023-03-01T12:59:33;10.90;99.90
2523;DHT22;1272;53.332;9.860;2023-03-01T13:02:24;10.80;99.90
2523;DHT22;1272;53.332;9.860;2023-03-01T13:13:02;11.00;99.90
2523;DHT22;1272;53.332;9.860;2023-03-01T13:15:31;11.10;99.90
2523;DHT22;1272;53.332;9.860;2023-03-01T13:34:00;11.50;99.90
2523;DHT22;1272;53.332;9.860;2023-03-01T13:39:28;11.60;99.90
2523;DHT22;1272;53.332;9.860;2023-03-01T13:41:56;11.70;99.90
2523;DHT22;1272;53.332;9.860;2023-03-01T13:49:45;11.60;99.90
2523;DHT22;1272;53.332;9.860;2023-03-01T13:54:56;11.80;99.90
2523;DHT22;1272;53.332;9.860;2023-03-01T13:57:34;11.80;99.90
2523;DHT22;1272;53.332;9.860;2023-03-01T14:00:03;11.80;99.90
2523;DHT22;1272;53.332;9.860;2023-03-01T14:02:30;11.70;99.90
2523;DHT22;1272;53.332;9.860;2023-03-01T14:04:57;11.90;99.90
2523;DHT22;1272;53.332;9.860;2023-03-01T14:07:24;11.80;99.90
2523;DHT22;1272;53.332;9.860;2023-03-01T14:09:59;11.40;99.90
2523;DHT22;1272;53.332;9.860;2023-03-01T14:20:19;11.00;99.90
2523;DHT22;1272;53.332;9.860;2023-03-01T14:22:46;10.90;99.90
2523;DHT22;1272;53.332;9.860;2023-03-01T14:25:21;10.70;99.90
2523;DHT22;1272;53.332;9.860;2023-03-01T14:27:58;10.80;99.90
2523;DHT22;1272;53.332;9.860;2023-03-01T14:30:27;11.00;99.90
2523;DHT22;1272;53.332;9.860;2023-03-01T14:33:04;10.80;99.90
2523;DHT22;1272;53.332;9.860;2023-03-01T14:35:34;10.70;99.90
2523;DHT22;1272;53.332;9.860;2023-03-01T14:38:01;10.50;99.90
2523;DHT22;1272;53.332;9.860;2023-03-01T14:40:29;10.40;99.90
2523;DHT22;1272;53.332;9.860;2023-03-01T14:42:56;10.30;99.90
2523;DHT22;1272;53.332;9.860;2023-03-01T14:45:29;10.30;99.90
2523;DHT22;1272;53.332;9.860;2023-03-01T14:48:00;10.40;99.90
2523;DHT22;1272;53.332;9.860;2023-03-01T14:50:32;10.30;99.90
2523;DHT22;1272;53.332;9.860;2023-03-01T14:53:04;10.10;99.90
2523;DHT22;1272;53.332;9.860;2023-03-01T14:55:37;9.80;99.90
2523;DHT22;1272;53.332;9.860;2023-03-01T14:58:05;9.60;99.90
2523;DHT22;1272;53.332;9.860;2023-03-01T15:00:33;9.60;1.00
2523;DHT22;1272;53.332;9.860;2023-03-01T15:03:24;9.80;99.90
2523;DHT22;1272;53.332;9.860;2023-03-01T15:05:50;9.90;99.90
2523;DHT22;1272;53.332;9.860;2023-03-01T15:08:20;10.00;99.90
2523;DHT22;1272;53.332;9.860;2023-03-01T15:13:29;9.90;1.00
2523;DHT22;1272;53.332;9.860;2023-03-01T15:18:36;9.90;1.00
2523;DHT22;1272;53.332;9.860;2023-03-01T15:21:15;10.00;99.90
2523;DHT22;1272;53.332;9.860;2023-03-01T15:23:41;10.00;99.90
2523;DHT22;1272;53.332;9.860;2023-03-01T15:26:25;9.90;1.00
2523;DHT22;1272;53.332;9.860;2023-03-01T15:28:54;9.90;1.00
2523;DHT22;1272;53.332;9.860;2023-03-01T15:31:28;9.80;1.00
2523;DHT22;1272;53.332;9.860;2023-03-01T15:36:47;9.50;1.00
2523;DHT22;1272;53.332;9.860;2023-03-01T15:39:39;9.40;1.00
2523;DHT22;1272;53.332;9.860;2023-03-01T15:42:35;9.30;1.00
2523;DHT22;1272;53.332;9.860;2023-03-01T15:47:36;9.10;1.00
2523;DHT22;1272;53.332;9.860;2023-03-01T15:50:04;8.90;3.10
2523;DHT22;1272;53.332;9.860;2023-03-01T15:52:35;8.90;12.70
2523;DHT22;1272;53.332;9.860;2023-03-01T15:55:26;8.80;67.60
2523;DHT22;1272;53.332;9.860;2023-03-01T15:58:10;8.60;99.90
2523;DHT22;1272;53.332;9.860;2023-03-01T16:00:38;8.50;99.90
2523;DHT22;1272;53.332;9.860;2023-03-01T16:03:04;8.40;99.90
2523;DHT22;1272;53.332;9.860;2023-03-01T16:05:32;8.40;99.90
2523;DHT22;1272;53.332;9.860;2023-03-01T16:08:00;8.30;99.90
2523;DHT22;1272;53.332;9.860;2023-03-01T16:10:26;8.20;99.90
2523;DHT22;1272;53.332;9.860;2023-03-01T16:12:53;8.10;99.90
2523;DHT22;1272;53.332;9.860;2023-03-01T16:15:23;8.00;99.90
2523;DHT22;1272;53.332;9.860;2023-03-01T16:17:49;8.00;99.90
2523;DHT22;1272;53.332;9.860;2023-03-01T16:20:16;7.90;99.90
2523;DHT22;1272;53.332;9.860;2023-03-01T16:22:43;7.80;1.00
2523;DHT22;1272;53.332;9.860;2023-03-01T16:25:10;7.70;1.00
2523;DHT22;1272;53.332;9.860;2023-03-01T16:27:36;7.70;1.00
2523;DHT22;1272;53.332;9.860;2023-03-01T16:30:03;7.60;1.00
2523;DHT22;1272;53.332;9.860;2023-03-01T16:32:29;7.50;1.00
2523;DHT22;1272;53.332;9.860;2023-03-01T16:34:55;7.50;73.30
2523;DHT22;1272;53.332;9.860;2023-03-01T16:37:21;7.40;99.90
2523;DHT22;1272;53.332;9.860;2023-03-01T16:39:47;7.30;99.90
2523;DHT22;1272;53.332;9.860;2023-03-01T16:42:16;7.20;99.90
2523;DHT22;1272;53.332;9.860;2023-03-01T16:44:42;7.20;1.00
2523;DHT22;1272;53.332;9.860;2023-03-01T16:47:07;7.10;99.90
2523;DHT22;1272;53.332;9.860;2023-03-01T16:49:33;7.00;1.00
2523;DHT22;1272;53.332;9.860;2023-03-01T16:51:59;6.90;1.00
2523;DHT22;1272;53.332;9.860;2023-03-01T16:54:24;6.80;1.00
2523;DHT22;1272;53.332;9.860;2023-03-01T16:56:50;6.70;1.00
2523;DHT22;1272;53.332;9.860;2023-03-01T16:59:16;6.60;24.80
2523;DHT22;1272;53.332;9.860;2023-03-01T17:01:43;6.50;99.90
2523;DHT22;1272;53.332;9.860;2023-03-01T17:04:11;6.50;99.90
2523;DHT22;1272;53.332;9.860;2023-03-01T17:06:37;6.30;1.00
2523;DHT22;1272;53.332;9.860;2023-03-01T17:09:03;6.20;64.80
2523;DHT22;1272;53.332;9.860;2023-03-01T17:11:28;6.10;1.00
2523;DHT22;1272;53.332;9.860;2023-03-01T17:13:54;6.10;99.90
2523;DHT22;1272;53.332;9.860;2023-03-01T17:16:20;6.00;1.00
2523;DHT22;1272;53.332;9.860;2023-03-01T17:18:46;5.90;99.90
2523;DHT22;1272;53.332;9.860;2023-03-01T17:21:13;5.90;99.90
2523;DHT22;1272;53.332;9.860;2023-03-01T17:23:41;5.80;99.90
2523;DHT22;1272;53.332;9.860;2023-03-01T17:26:08;5.70;99.90
2523;DHT22;1272;53.332;9.860;2023-03-01T17:28:34;5.60;1.00
2523;DHT22;1272;53.332;9.860;2023-03-01T17:31:02;5.60;99.90
2523;DHT22;1272;53.332;9.860;2023-03-01T17:33:28;5.50;99.90
2523;DHT22;1272;53.332;9.860;2023-03-01T17:35:57;5.40;99.90
2523;DHT22;1272;53.332;9.860;2023-03-01T17:38:24;5.30;39.50
2523;DHT22;1272;53.332;9.860;2023-03-01T17:40:50;5.20;72.00
2523;DHT22;1272;53.332;9.860;2023-03-01T17:43:17;5.10;99.90
2523;DHT22;1272;53.332;9.860;2023-03-01T17:45:45;5.10;1.00
2523;DHT22;1272;53.332;9.860;2023-03-01T17:48:16;5.10;99.90
2523;DHT22;1272;53.332;9.860;2023-03-01T17:50:43;5.00;99.90
2523;DHT22;1272;53.332;9.860;2023-03-01T17:53:09;5.00;99.90
2523;DHT22;1272;53.332;9.860;2023-03-01T17:55:36;4.90;99.90
2523;DHT22;1272;53.332;9.860;2023-03-01T17:58:02;4.80;99.90
2523;DHT22;1272;53.332;9.860;2023-03-01T18:00:28;4.70;1.00
2523;DHT22;1272;53.332;9.860;2023-03-01T18:02:54;4.70;1.00
2523;DHT22;1272;53.332;9.860;2023-03-01T18:05:20;4.60;1.00
2523;DHT22;1272;53.332;9.860;2023-03-01T18:07:45;4.50;1.00
2523;DHT22;1272;53.332;9.860;2023-03-01T18:10:11;4.50;1.00
2523;DHT22;1272;53.332;9.860;2023-03-01T18:12:37;4.40;1.00
2523;DHT22;1272;53.332;9.860;2023-03-01T18:15:05;4.40;1.00
2523;DHT22;1272;53.332;9.860;2023-03-01T18:17:31;4.30;1.00
2523;DHT22;1272;53.332;9.860;2023-03-01T18:19:56;4.20;1.00
2523;DHT22;1272;53.332;9.860;2023-03-01T18:22:23;4.20;1.00
2523;DHT22;1272;53.332;9.860;2023-03-01T18:24:49;4.10;1.00
2523;DHT22;1272;53.332;9.860;2023-03-01T18:27:15;4.10;99.90
2523;DHT22;1272;53.332;9.860;2023-03-01T18:29:42;4.00;1.00
2523;DHT22;1272;53.332;9.860;2023-03-01T18:32:08;3.90;99.90
2523;DHT22;1272;53.332;9.860;2023-03-01T18:34:34;3.90;99.90
2523;DHT22;1272;53.332;9.860;2023-03-01T18:37:00;3.80;99.90
2523;DHT22;1272;53.332;9.860;2023-03-01T18:39:26;3.70;1.00
2523;DHT22;1272;53.332;9.860;2023-03-01T18:41:52;3.70;1.00
2523;DHT22;1272;53.332;9.860;2023-03-01T18:44:17;3.60;1.00
2523;DHT22;1272;53.332;9.860;2023-03-01T18:46:43;3.60;1.00
2523;DHT22;1272;53.332;9.860;2023-03-01T18:49:12;3.60;99.90